sensor_id;sensor_type;location;lat;lon;timestamp;P1;durP1;ratioP1;P2;durP2;ratioP2
71164;SDS011;58859;55.132;-1.586;2024-02-26T00:01:27;8.45;;;4.85;;
71164;SDS011;58859;55.132;-1.586;2024-02-26T00:03:53;8.50;;;5.77;;
71164;SDS011;58859;55.132;-1.586;2024-02-26T00:06:20;9.00;;;5.38;;
71164;SDS011;58859;55.132;-1.586;2024-02-26T00:08:45;11.90;;;5.43;;
71164;SDS011;58859;55.132;-1.586;2024-02-26T00:11:11;11.02;;;5.50;;
71164;SDS011;58859;55.132;-1.586;2024-02-26T00:13:36;13.77;;;5.73;;
71164;SDS011;58859;55.132;-1.586;2024-02-26T00:16:02;11.87;;;5.80;;
71164;SDS011;58859;55.132;-1.586;2024-02-26T00:18:29;10.55;;;5.43;;
71164;SDS011;58859;55.132;-1.586;2024-02-26T00:20:54;10.57;;;5.40;;
71164;SDS011;58859;55.132;-1.586;2024-02-26T00:23:19;10.02;;;6.18;;
71164;SDS011;58859;55.132;-1.586;2024-02-26T00:25:45;8.20;;;5.68;;
71164;SDS011;58859;55.132;-1.586;2024-02-26T00:28:10;8.30;;;5.60;;
71164;SDS011;58859;55.132;-1.586;2024-02-26T00:30:37;11.32;;;5.35;;
71164;SDS011;58859;55.132;-1.586;2024-02-26T00:33:03;10.50;;;5.60;;
71164;SDS011;58859;55.132;-1.586;2024-02-26T00:35:28;11.47;;;5.63;;
71164;SDS011;58859;55.132;-1.586;2024-02-26T00:37:54;14.05;;;5.50;;
71164;SDS011;58859;55.132;-1.586;2024-02-26T00:40:19;12.93;;;4.77;;
71164;SDS011;58859;55.132;-1.586;2024-02-26T00:42:45;9.20;;;5.00;;
71164;SDS011;58859;55.132;-1.586;2024-02-26T00:45:14;10.90;;;5.32;;
71164;SDS011;58859;55.132;-1.586;2024-02-26T00:47:41;8.03;;;4.70;;
71164;SDS011;58859;55.132;-1.586;2024-02-26T00:50:07;6.25;;;4.13;;
71164;SDS011;58859;55.132;-1.586;2024-02-26T00:52:34;16.40;;;4.70;;
71164;SDS011;58859;55.132;-1.586;2024-02-26T00:54:59;9.32;;;4.45;;
71164;SDS011;58859;55.132;-1.586;2024-02-26T00:57:25;7.70;;;4.40;;
71164;SDS011;58859;55.132;-1.586;2024-02-26T00:59:50;9.23;;;3.90;;
71164;SDS011;58859;55.132;-1.586;2024-02-26T01:02:16;8.70;;;4.65;;
71164;SDS011;58859;55.132;-1.586;2024-02-26T01:04:41;5.82;;;3.78;;
71164;SDS011;58859;55.132;-1.586;2024-02-26T01:07:07;7.27;;;3.87;;
71164;SDS011;58859;55.132;-1.586;2024-02-26T01:09:32;8.37;;;4.17;;
71164;SDS011;58859;55.132;-1.586;2024-02-26T01:11:58;11.00;;;3.40;;
71164;SDS011;58859;55.132;-1.586;2024-02-26T01:14:23;5.83;;;3.23;;
71164;SDS011;58859;55.132;-1.586;2024-02-26T01:16:49;6.60;;;3.67;;
71164;SDS011;58859;55.132;-1.586;2024-02-26T01:19:14;9.77;;;3.28;;
71164;SDS011;58859;55.132;-1.586;2024-02-26T01:21:40;5.40;;;2.87;;
71164;SDS011;58859;55.132;-1.586;2024-02-26T01:24:06;4.43;;;2.80;;
71164;SDS011;58859;55.132;-1.586;2024-02-26T01:26:32;4.18;;;2.67;;
71164;SDS011;58859;55.132;-1.586;2024-02-26T01:28:57;5.47;;;2.90;;
71164;SDS011;58859;55.132;-1.586;2024-02-26T01:31:22;2.88;;;2.42;;
71164;SDS011;58859;55.132;-1.586;2024-02-26T01:33:48;3.77;;;2.43;;
71164;SDS011;58859;55.132;-1.586;2024-02-26T01:36:13;5.93;;;2.23;;
71164;SDS011;58859;55.132;-1.586;2024-02-26T01:38:39;3.53;;;2.47;;
71164;SDS011;58859;55.132;-1.586;2024-02-26T01:41:04;6.83;;;2.43;;
71164;SDS011;58859;55.132;-1.586;2024-02-26T01:43:30;3.20;;;2.58;;
71164;SDS011;58859;55.132;-1.586;2024-02-26T01:45:55;2.50;;;1.83;;
71164;SDS011;58859;55.132;-1.586;2024-02-26T01:48:20;3.70;;;2.10;;
71164;SDS011;58859;55.132;-1.586;2024-02-26T01:50:46;1.80;;;1.45;;
71164;SDS011;58859;55.132;-1.586;2024-02-26T01:53:11;3.70;;;1.98;;
71164;SDS011;58859;55.132;-1.586;2024-02-26T01:55:37;2.77;;;1.83;;
71164;SDS011;58859;55.132;-1.586;2024-02-26T01:58:03;3.10;;;1.42;;
71164;SDS011;58859;55.132;-1.586;2024-02-26T02:00:30;1.60;;;1.50;;
71164;SDS011;58859;55.132;-1.586;2024-02-26T02:02:55;1.73;;;1.60;;
71164;SDS011;58859;55.132;-1.586;2024-02-26T02:05:21;4.22;;;1.65;;
71164;SDS011;58859;55.132;-1.586;2024-02-26T02:07:47;1.70;;;1.30;;
71164;SDS011;58859;55.132;-1.586;2024-02-26T02:10:14;4.82;;;1.30;;
71164;SDS011;58859;55.132;-1.586;2024-02-26T02:12:40;3.92;;;1.50;;
71164;SDS011;58859;55.132;-1.586;2024-02-26T02:15:06;2.93;;;1.30;;
71164;SDS011;58859;55.132;-1.586;2024-02-26T02:17:32;2.03;;;1.40;;
71164;SDS011;58859;55.132;-1.586;2024-02-26T02:19:58;2.22;;;1.20;;
71164;SDS011;58859;55.132;-1.586;2024-02-26T02:22:23;2.30;;;0.97;;
71164;SDS011;58859;55.132;-1.586;2024-02-26T02:24:49;2.77;;;1.40;;
71164;SDS011;58859;55.132;-1.586;2024-02-26T02:27:15;2.25;;;1.38;;
71164;SDS011;58859;55.132;-1.586;2024-02-26T02:29:41;2.97;;;1.20;;
71164;SDS011;58859;55.132;-1.586;2024-02-26T02:32:07;2.15;;;1.30;;
71164;SDS011;58859;55.132;-1.586;2024-02-26T02:34:33;2.85;;;1.52;;
71164;SDS011;58859;55.132;-1.586;2024-02-26T02:36:59;3.63;;;1.10;;
71164;SDS011;58859;55.132;-1.586;2024-02-26T02:39:25;3.03;;;1.45;;
71164;SDS011;58859;55.132;-1.586;2024-02-26T02:41:50;3.50;;;1.23;;
71164;SDS011;58859;55.132;-1.586;2024-02-26T02:44:15;2.50;;;1.27;;
71164;SDS011;58859;55.132;-1.586;2024-02-26T02:46:41;2.80;;;1.27;;
71164;SDS011;58859;55.132;-1.586;2024-02-26T02:49:10;2.70;;;1.55;;
71164;SDS011;58859;55.132;-1.586;2024-02-26T02:51:35;4.20;;;1.40;;
71164;SDS011;58859;55.132;-1.586;2024-02-26T02:54:02;3.00;;;1.10;;
71164;SDS011;58859;55.132;-1.586;2024-02-26T02:56:27;2.60;;;1.52;;
71164;SDS011;58859;55.132;-1.586;2024-02-26T02:58:53;5.28;;;1.60;;
71164;SDS011;58859;55.132;-1.586;2024-02-26T03:01:18;2.63;;;1.40;;
71164;SDS011;58859;55.132;-1.586;2024-02-26T03:03:43;3.73;;;1.57;;
71164;SDS011;58859;55.132;-1.586;2024-02-26T03:06:09;3.57;;;1.30;;
71164;SDS011;58859;55.132;-1.586;2024-02-26T03:08:34;1.47;;;0.97;;
71164;SDS011;58859;55.132;-1.586;2024-02-26T03:11:03;4.82;;;1.48;;
71164;SDS011;58859;55.132;-1.586;2024-02-26T03:13:29;1.88;;;1.75;;
71164;SDS011;58859;55.132;-1.586;2024-02-26T03:15:54;6.33;;;1.20;;
71164;SDS011;58859;55.132;-1.586;2024-02-26T03:18:20;4.75;;;1.52;;
71164;SDS011;58859;55.132;-1.586;2024-02-26T03:20:45;4.73;;;1.20;;
71164;SDS011;58859;55.132;-1.586;2024-02-26T03:23:11;1.17;;;0.93;;
71164;SDS011;58859;55.132;-1.586;2024-02-26T03:25:41;3.55;;;1.17;;
71164;SDS011;58859;55.132;-1.586;2024-02-26T03:28:11;1.90;;;1.05;;
71164;SDS011;58859;55.132;-1.586;2024-02-26T03:30:37;3.43;;;1.13;;
71164;SDS011;58859;55.132;-1.586;2024-02-26T03:33:03;3.83;;;0.80;;
71164;SDS011;58859;55.132;-1.586;2024-02-26T03:35:28;3.53;;;0.80;;
71164;SDS011;58859;55.132;-1.586;2024-02-26T03:37:54;1.00;;;0.60;;
71164;SDS011;58859;55.132;-1.586;2024-02-26T03:40:19;1.83;;;0.90;;
71164;SDS011;58859;55.132;-1.586;2024-02-26T03:42:45;0.70;;;0.70;;
71164;SDS011;58859;55.132;-1.586;2024-02-26T03:45:10;3.25;;;1.20;;
71164;SDS011;58859;55.132;-1.586;2024-02-26T03:47:37;5.10;;;1.10;;
71164;SDS011;58859;55.132;-1.586;2024-02-26T03:50:05;4.40;;;1.33;;
71164;SDS011;58859;55.132;-1.586;2024-02-26T03:52:31;1.75;;;0.70;;
71164;SDS011;58859;55.132;-1.586;2024-02-26T03:54:57;1.08;;;0.80;;
71164;SDS011;58859;55.132;-1.586;2024-02-26T03:57:23;1.60;;;1.10;;
71164;SDS011;58859;55.132;-1.586;2024-02-26T03:59:48;2.17;;;0.70;;
71164;SDS011;58859;55.132;-1.586;2024-02-26T04:02:14;1.57;;;0.80;;
71164;SDS011;58859;55.132;-1.586;2024-02-26T04:04:39;3.30;;;0.75;;
71164;SDS011;58859;55.132;-1.586;2024-02-26T04:07:04;3.10;;;1.10;;
71164;SDS011;58859;55.132;-1.586;2024-02-26T04:09:33;2.30;;;1.10;;
71164;SDS011;58859;55.132;-1.586;2024-02-26T04:11:58;4.53;;;1.30;;
71164;SDS011;58859;55.132;-1.586;2024-02-26T04:14:24;2.80;;;0.80;;
71164;SDS011;58859;55.132;-1.586;2024-02-26T04:16:49;1.70;;;0.93;;
71164;SDS011;58859;55.132;-1.586;2024-02-26T04:19:17;3.70;;;0.60;;
71164;SDS011;58859;55.132;-1.586;2024-02-26T04:21:43;1.95;;;0.40;;
71164;SDS011;58859;55.132;-1.586;2024-02-26T04:24:08;4.40;;;0.80;;
71164;SDS011;58859;55.132;-1.586;2024-02-26T04:26:34;0.98;;;0.45;;
71164;SDS011;58859;55.132;-1.586;2024-02-26T04:28:59;0.95;;;0.55;;
71164;SDS011;58859;55.132;-1.586;2024-02-26T04:31:25;0.50;;;0.50;;
71164;SDS011;58859;55.132;-1.586;2024-02-26T04:33:51;1.27;;;0.68;;
71164;SDS011;58859;55.132;-1.586;2024-02-26T04:36:17;0.40;;;0.40;;
71164;SDS011;58859;55.132;-1.586;2024-02-26T04:38:43;2.08;;;0.68;;
71164;SDS011;58859;55.132;-1.586;2024-02-26T04:41:08;2.80;;;0.67;;
71164;SDS011;58859;55.132;-1.586;2024-02-26T04:43:34;1.00;;;0.80;;
71164;SDS011;58859;55.132;-1.586;2024-02-26T04:45:59;4.20;;;0.70;;
71164;SDS011;58859;55.132;-1.586;2024-02-26T04:48:25;3.23;;;0.70;;
71164;SDS011;58859;55.132;-1.586;2024-02-26T04:50:51;4.22;;;0.93;;
71164;SDS011;58859;55.132;-1.586;2024-02-26T04:53:17;0.97;;;0.90;;
71164;SDS011;58859;55.132;-1.586;2024-02-26T04:55:42;1.37;;;0.50;;
71164;SDS011;58859;55.132;-1.586;2024-02-26T04:58:07;2.07;;;0.60;;
71164;SDS011;58859;55.132;-1.586;2024-02-26T05:00:33;3.55;;;0.47;;
71164;SDS011;58859;55.132;-1.586;2024-02-26T05:02:58;3.70;;;1.10;;
71164;SDS011;58859;55.132;-1.586;2024-02-26T05:05:24;1.70;;;0.70;;
71164;SDS011;58859;55.132;-1.586;2024-02-26T05:07:50;3.60;;;0.43;;
71164;SDS011;58859;55.132;-1.586;2024-02-26T05:10:15;2.30;;;0.63;;
71164;SDS011;58859;55.132;-1.586;2024-02-26T05:12:40;3.00;;;0.50;;
71164;SDS011;58859;55.132;-1.586;2024-02-26T05:15:07;2.85;;;0.50;;
71164;SDS011;58859;55.132;-1.586;2024-02-26T05:17:33;3.53;;;0.60;;
71164;SDS011;58859;55.132;-1.586;2024-02-26T05:19:59;1.70;;;0.50;;
71164;SDS011;58859;55.132;-1.586;2024-02-26T05:22:24;5.50;;;0.67;;
71164;SDS011;58859;55.132;-1.586;2024-02-26T05:24:50;2.77;;;1.17;;
71164;SDS011;58859;55.132;-1.586;2024-02-26T05:27:16;2.35;;;0.80;;
71164;SDS011;58859;55.132;-1.586;2024-02-26T05:29:41;3.20;;;0.50;;
71164;SDS011;58859;55.132;-1.586;2024-02-26T05:32:07;3.00;;;0.60;;
71164;SDS011;58859;55.132;-1.586;2024-02-26T05:34:32;2.53;;;0.47;;
71164;SDS011;58859;55.132;-1.586;2024-02-26T05:36:58;4.07;;;1.00;;
71164;SDS011;58859;55.132;-1.586;2024-02-26T05:39:23;5.20;;;0.63;;
71164;SDS011;58859;55.132;-1.586;2024-02-26T05:41:49;1.65;;;0.93;;
71164;SDS011;58859;55.132;-1.586;2024-02-26T05:44:14;1.13;;;0.63;;
71164;SDS011;58859;55.132;-1.586;2024-02-26T05:46:41;2.27;;;0.50;;
71164;SDS011;58859;55.132;-1.586;2024-02-26T05:49:07;1.40;;;0.40;;
71164;SDS011;58859;55.132;-1.586;2024-02-26T05:51:32;4.80;;;1.05;;
71164;SDS011;58859;55.132;-1.586;2024-02-26T05:53:58;0.70;;;0.60;;
71164;SDS011;58859;55.132;-1.586;2024-02-26T05:56:23;2.10;;;0.70;;
71164;SDS011;58859;55.132;-1.586;2024-02-26T05:58:48;2.60;;;0.80;;
71164;SDS011;58859;55.132;-1.586;2024-02-26T06:01:17;3.17;;;0.63;;
71164;SDS011;58859;55.132;-1.586;2024-02-26T06:03:43;1.30;;;0.40;;
71164;SDS011;58859;55.132;-1.586;2024-02-26T06:06:10;3.40;;;0.50;;
71164;SDS011;58859;55.132;-1.586;2024-02-26T06:08:35;3.00;;;0.43;;
71164;SDS011;58859;55.132;-1.586;2024-02-26T06:11:04;2.47;;;0.90;;
71164;SDS011;58859;55.132;-1.586;2024-02-26T06:13:31;5.78;;;4.28;;
71164;SDS011;58859;55.132;-1.586;2024-02-26T06:15:57;1.57;;;0.80;;
71164;SDS011;58859;55.132;-1.586;2024-02-26T06:18:22;1.23;;;0.70;;
71164;SDS011;58859;55.132;-1.586;2024-02-26T06:20:48;2.43;;;0.50;;
71164;SDS011;58859;55.132;-1.586;2024-02-26T06:23:13;1.17;;;0.60;;
71164;SDS011;58859;55.132;-1.586;2024-02-26T06:25:39;2.33;;;0.60;;
71164;SDS011;58859;55.132;-1.586;2024-02-26T06:28:04;0.65;;;0.50;;
71164;SDS011;58859;55.132;-1.586;2024-02-26T06:30:30;0.50;;;0.50;;
71164;SDS011;58859;55.132;-1.586;2024-02-26T06:32:55;2.20;;;0.70;;
71164;SDS011;58859;55.132;-1.586;2024-02-26T06:35:21;3.22;;;0.65;;
71164;SDS011;58859;55.132;-1.586;2024-02-26T06:37:46;1.90;;;0.43;;
71164;SDS011;58859;55.132;-1.586;2024-02-26T06:40:12;0.87;;;0.63;;
71164;SDS011;58859;55.132;-1.586;2024-02-26T06:42:37;2.07;;;0.50;;
71164;SDS011;58859;55.132;-1.586;2024-02-26T06:45:03;1.90;;;0.60;;
71164;SDS011;58859;55.132;-1.586;2024-02-26T06:47:29;4.75;;;0.75;;
71164;SDS011;58859;55.132;-1.586;2024-02-26T06:49:54;1.60;;;0.73;;
71164;SDS011;58859;55.132;-1.586;2024-02-26T06:52:23;1.70;;;0.70;;
71164;SDS011;58859;55.132;-1.586;2024-02-26T06:54:50;1.45;;;0.70;;
71164;SDS011;58859;55.132;-1.586;2024-02-26T06:57:16;4.07;;;0.63;;
71164;SDS011;58859;55.132;-1.586;2024-02-26T06:59:41;2.83;;;0.50;;
71164;SDS011;58859;55.132;-1.586;2024-02-26T07:02:11;2.50;;;0.70;;
71164;SDS011;58859;55.132;-1.586;2024-02-26T07:04:36;0.87;;;0.50;;
71164;SDS011;58859;55.132;-1.586;2024-02-26T07:07:02;3.30;;;0.93;;
71164;SDS011;58859;55.132;-1.586;2024-02-26T07:09:27;2.05;;;0.50;;
71164;SDS011;58859;55.132;-1.586;2024-02-26T07:11:53;2.20;;;0.70;;
71164;SDS011;58859;55.132;-1.586;2024-02-26T07:14:18;0.70;;;0.70;;
71164;SDS011;58859;55.132;-1.586;2024-02-26T07:16:43;1.43;;;0.80;;
71164;SDS011;58859;55.132;-1.586;2024-02-26T07:19:09;2.28;;;0.65;;
71164;SDS011;58859;55.132;-1.586;2024-02-26T07:21:34;1.88;;;0.60;;
71164;SDS011;58859;55.132;-1.586;2024-02-26T07:24:00;0.90;;;0.90;;
71164;SDS011;58859;55.132;-1.586;2024-02-26T07:26:25;2.93;;;0.63;;
71164;SDS011;58859;55.132;-1.586;2024-02-26T07:28:51;1.77;;;0.85;;
71164;SDS011;58859;55.132;-1.586;2024-02-26T07:31:19;2.30;;;0.32;;
71164;SDS011;58859;55.132;-1.586;2024-02-26T07:33:45;0.68;;;0.55;;
71164;SDS011;58859;55.132;-1.586;2024-02-26T07:36:11;4.40;;;0.67;;
71164;SDS011;58859;55.132;-1.586;2024-02-26T07:38:37;1.80;;;0.75;;
71164;SDS011;58859;55.132;-1.586;2024-02-26T07:41:02;2.60;;;0.40;;
71164;SDS011;58859;55.132;-1.586;2024-02-26T07:43:28;4.65;;;0.50;;
71164;SDS011;58859;55.132;-1.586;2024-02-26T07:45:54;6.75;;;1.10;;
71164;SDS011;58859;55.132;-1.586;2024-02-26T07:48:19;2.57;;;0.67;;
71164;SDS011;58859;55.132;-1.586;2024-02-26T07:50:45;4.07;;;1.40;;
71164;SDS011;58859;55.132;-1.586;2024-02-26T07:53:10;2.53;;;0.60;;
71164;SDS011;58859;55.132;-1.586;2024-02-26T07:55:36;1.27;;;0.50;;
71164;SDS011;58859;55.132;-1.586;2024-02-26T07:58:01;0.97;;;0.50;;
71164;SDS011;58859;55.132;-1.586;2024-02-26T08:00:27;0.77;;;0.63;;
71164;SDS011;58859;55.132;-1.586;2024-02-26T08:02:52;2.17;;;0.40;;
71164;SDS011;58859;55.132;-1.586;2024-02-26T08:05:17;1.93;;;0.60;;
71164;SDS011;58859;55.132;-1.586;2024-02-26T08:07:43;1.83;;;0.80;;
71164;SDS011;58859;55.132;-1.586;2024-02-26T08:10:08;6.70;;;0.67;;
71164;SDS011;58859;55.132;-1.586;2024-02-26T08:12:35;1.25;;;0.70;;
71164;SDS011;58859;55.132;-1.586;2024-02-26T08:15:00;0.70;;;0.50;;
71164;SDS011;58859;55.132;-1.586;2024-02-26T08:17:26;1.52;;;0.52;;
71164;SDS011;58859;55.132;-1.586;2024-02-26T08:19:52;1.50;;;0.70;;
71164;SDS011;58859;55.132;-1.586;2024-02-26T08:22:17;0.57;;;0.57;;
71164;SDS011;58859;55.132;-1.586;2024-02-26T08:24:43;0.83;;;0.73;;
71164;SDS011;58859;55.132;-1.586;2024-02-26T08:27:08;0.93;;;0.50;;
71164;SDS011;58859;55.132;-1.586;2024-02-26T08:29:34;3.57;;;0.60;;
71164;SDS011;58859;55.132;-1.586;2024-02-26T08:32:00;3.53;;;0.60;;
71164;SDS011;58859;55.132;-1.586;2024-02-26T08:34:25;0.88;;;0.60;;
71164;SDS011;58859;55.132;-1.586;2024-02-26T08:36:51;1.50;;;0.60;;
71164;SDS011;58859;55.132;-1.586;2024-02-26T08:39:16;2.70;;;0.60;;
71164;SDS011;58859;55.132;-1.586;2024-02-26T08:41:43;3.53;;;0.80;;
71164;SDS011;58859;55.132;-1.586;2024-02-26T08:44:09;0.90;;;0.30;;
71164;SDS011;58859;55.132;-1.586;2024-02-26T08:46:35;0.40;;;0.40;;
71164;SDS011;58859;55.132;-1.586;2024-02-26T08:49:00;0.77;;;0.47;;
71164;SDS011;58859;55.132;-1.586;2024-02-26T08:51:26;1.80;;;0.80;;
71164;SDS011;58859;55.132;-1.586;2024-02-26T08:53:51;0.50;;;0.40;;
71164;SDS011;58859;55.132;-1.586;2024-02-26T08:56:17;3.37;;;0.53;;
71164;SDS011;58859;55.132;-1.586;2024-02-26T08:58:42;3.33;;;0.80;;
71164;SDS011;58859;55.132;-1.586;2024-02-26T09:01:08;2.65;;;0.55;;
71164;SDS011;58859;55.132;-1.586;2024-02-26T09:03:34;2.00;;;0.50;;
71164;SDS011;58859;55.132;-1.586;2024-02-26T09:05:59;2.92;;;0.68;;
71164;SDS011;58859;55.132;-1.586;2024-02-26T09:08:25;2.17;;;0.75;;
71164;SDS011;58859;55.132;-1.586;2024-02-26T09:10:50;1.40;;;0.50;;
71164;SDS011;58859;55.132;-1.586;2024-02-26T09:13:16;2.10;;;0.60;;
71164;SDS011;58859;55.132;-1.586;2024-02-26T09:15:41;2.53;;;0.77;;
71164;SDS011;58859;55.132;-1.586;2024-02-26T09:18:06;0.82;;;0.82;;
71164;SDS011;58859;55.132;-1.586;2024-02-26T09:20:32;4.93;;;0.60;;
71164;SDS011;58859;55.132;-1.586;2024-02-26T09:22:57;1.50;;;0.50;;
71164;SDS011;58859;55.132;-1.586;2024-02-26T09:25:23;0.77;;;0.50;;
71164;SDS011;58859;55.132;-1.586;2024-02-26T09:27:48;4.47;;;0.83;;
71164;SDS011;58859;55.132;-1.586;2024-02-26T09:30:14;0.50;;;0.30;;
71164;SDS011;58859;55.132;-1.586;2024-02-26T09:32:39;4.57;;;0.87;;
71164;SDS011;58859;55.132;-1.586;2024-02-26T09:35:05;0.63;;;0.38;;
71164;SDS011;58859;55.132;-1.586;2024-02-26T09:37:31;0.90;;;0.70;;
71164;SDS011;58859;55.132;-1.586;2024-02-26T09:39:58;1.70;;;0.50;;
71164;SDS011;58859;55.132;-1.586;2024-02-26T09:42:27;3.63;;;0.90;;
71164;SDS011;58859;55.132;-1.586;2024-02-26T09:44:55;3.65;;;0.90;;
71164;SDS011;58859;55.132;-1.586;2024-02-26T09:47:24;2.67;;;0.60;;
71164;SDS011;58859;55.132;-1.586;2024-02-26T09:49:52;0.70;;;0.70;;
71164;SDS011;58859;55.132;-1.586;2024-02-26T09:52:18;3.78;;;0.60;;
71164;SDS011;58859;55.132;-1.586;2024-02-26T09:54:47;1.97;;;0.73;;
71164;SDS011;58859;55.132;-1.586;2024-02-26T09:57:13;0.68;;;0.50;;
71164;SDS011;58859;55.132;-1.586;2024-02-26T09:59:42;1.67;;;0.70;;
71164;SDS011;58859;55.132;-1.586;2024-02-26T10:02:11;1.25;;;0.60;;
71164;SDS011;58859;55.132;-1.586;2024-02-26T10:04:41;2.15;;;0.50;;
71164;SDS011;58859;55.132;-1.586;2024-02-26T10:07:11;1.77;;;0.50;;
71164;SDS011;58859;55.132;-1.586;2024-02-26T10:09:38;3.80;;;0.60;;
71164;SDS011;58859;55.132;-1.586;2024-02-26T10:12:04;1.42;;;0.60;;
71164;SDS011;58859;55.132;-1.586;2024-02-26T10:14:30;0.98;;;0.70;;
71164;SDS011;58859;55.132;-1.586;2024-02-26T10:16:56;5.63;;;1.07;;
71164;SDS011;58859;55.132;-1.586;2024-02-26T10:19:25;2.15;;;0.93;;
71164;SDS011;58859;55.132;-1.586;2024-02-26T10:21:57;4.78;;;0.95;;
71164;SDS011;58859;55.132;-1.586;2024-02-26T10:24:28;3.70;;;0.65;;
71164;SDS011;58859;55.132;-1.586;2024-02-26T10:26:54;4.93;;;0.80;;
71164;SDS011;58859;55.132;-1.586;2024-02-26T10:29:21;1.73;;;0.40;;
71164;SDS011;58859;55.132;-1.586;2024-02-26T10:31:48;2.40;;;0.70;;
71164;SDS011;58859;55.132;-1.586;2024-02-26T10:34:16;2.65;;;1.17;;
71164;SDS011;58859;55.132;-1.586;2024-02-26T10:36:42;3.33;;;0.75;;
71164;SDS011;58859;55.132;-1.586;2024-02-26T10:39:09;1.63;;;0.60;;
71164;SDS011;58859;55.132;-1.586;2024-02-26T10:41:35;1.27;;;0.30;;
71164;SDS011;58859;55.132;-1.586;2024-02-26T10:44:01;2.20;;;0.57;;
71164;SDS011;58859;55.132;-1.586;2024-02-26T10:46:27;2.87;;;0.90;;
71164;SDS011;58859;55.132;-1.586;2024-02-26T10:48:53;3.13;;;0.88;;
71164;SDS011;58859;55.132;-1.586;2024-02-26T10:51:26;1.10;;;0.73;;
71164;SDS011;58859;55.132;-1.586;2024-02-26T10:53:55;1.83;;;0.63;;
71164;SDS011;58859;55.132;-1.586;2024-02-26T10:56:26;4.85;;;0.73;;
71164;SDS011;58859;55.132;-1.586;2024-02-26T10:58:53;1.50;;;0.60;;
71164;SDS011;58859;55.132;-1.586;2024-02-26T11:01:19;2.35;;;0.57;;
71164;SDS011;58859;55.132;-1.586;2024-02-26T11:03:46;1.48;;;0.73;;
71164;SDS011;58859;55.132;-1.586;2024-02-26T11:06:13;3.33;;;0.60;;
71164;SDS011;58859;55.132;-1.586;2024-02-26T11:08:40;5.47;;;0.85;;
71164;SDS011;58859;55.132;-1.586;2024-02-26T11:11:06;3.75;;;0.73;;
71164;SDS011;58859;55.132;-1.586;2024-02-26T11:13:32;2.05;;;0.73;;
71164;SDS011;58859;55.132;-1.586;2024-02-26T11:15:59;3.55;;;1.15;;
71164;SDS011;58859;55.132;-1.586;2024-02-26T11:18:26;1.47;;;0.63;;
71164;SDS011;58859;55.132;-1.586;2024-02-26T11:20:52;2.38;;;0.63;;
71164;SDS011;58859;55.132;-1.586;2024-02-26T11:23:22;2.20;;;0.65;;
71164;SDS011;58859;55.132;-1.586;2024-02-26T11:25:48;1.95;;;0.47;;
71164;SDS011;58859;55.132;-1.586;2024-02-26T11:28:17;1.42;;;0.65;;
71164;SDS011;58859;55.132;-1.586;2024-02-26T11:30:45;4.32;;;0.70;;
71164;SDS011;58859;55.132;-1.586;2024-02-26T11:33:13;3.45;;;0.70;;
71164;SDS011;58859;55.132;-1.586;2024-02-26T11:35:40;3.10;;;0.90;;
71164;SDS011;58859;55.132;-1.586;2024-02-26T11:38:06;1.43;;;0.57;;
71164;SDS011;58859;55.132;-1.586;2024-02-26T11:40:32;3.40;;;0.90;;
71164;SDS011;58859;55.132;-1.586;2024-02-26T11:43:03;3.20;;;0.77;;
71164;SDS011;58859;55.132;-1.586;2024-02-26T11:48:03;5.57;;;0.95;;
71164;SDS011;58859;55.132;-1.586;2024-02-26T11:50:33;3.65;;;0.98;;
71164;SDS011;58859;55.132;-1.586;2024-02-26T11:53:19;2.92;;;0.68;;
71164;SDS011;58859;55.132;-1.586;2024-02-26T11:58:42;7.18;;;1.00;;
71164;SDS011;58859;55.132;-1.586;2024-02-26T12:04:23;2.57;;;0.87;;
71164;SDS011;58859;55.132;-1.586;2024-02-26T12:06:55;3.10;;;0.68;;
71164;SDS011;58859;55.132;-1.586;2024-02-26T12:12:02;4.38;;;0.90;;
71164;SDS011;58859;55.132;-1.586;2024-02-26T12:14:29;4.53;;;0.85;;
71164;SDS011;58859;55.132;-1.586;2024-02-26T12:16:55;4.00;;;0.90;;
71164;SDS011;58859;55.132;-1.586;2024-02-26T12:19:21;2.08;;;0.88;;
71164;SDS011;58859;55.132;-1.586;2024-02-26T12:21:51;4.35;;;0.80;;
71164;SDS011;58859;55.132;-1.586;2024-02-26T12:24:18;4.23;;;1.10;;
71164;SDS011;58859;55.132;-1.586;2024-02-26T12:26:45;3.15;;;1.30;;
71164;SDS011;58859;55.132;-1.586;2024-02-26T12:29:10;2.97;;;0.88;;
71164;SDS011;58859;55.132;-1.586;2024-02-26T12:31:36;3.10;;;0.80;;
71164;SDS011;58859;55.132;-1.586;2024-02-26T12:34:02;2.22;;;0.80;;
71164;SDS011;58859;55.132;-1.586;2024-02-26T12:36:28;4.50;;;0.88;;
71164;SDS011;58859;55.132;-1.586;2024-02-26T12:38:54;4.78;;;0.88;;
71164;SDS011;58859;55.132;-1.586;2024-02-26T12:41:20;2.72;;;0.90;;
71164;SDS011;58859;55.132;-1.586;2024-02-26T12:43:47;4.43;;;0.90;;
71164;SDS011;58859;55.132;-1.586;2024-02-26T12:46:12;2.20;;;0.73;;
71164;SDS011;58859;55.132;-1.586;2024-02-26T12:48:39;1.27;;;0.60;;
71164;SDS011;58859;55.132;-1.586;2024-02-26T12:51:05;8.73;;;0.70;;
71164;SDS011;58859;55.132;-1.586;2024-02-26T12:53:31;4.97;;;0.80;;
71164;SDS011;58859;55.132;-1.586;2024-02-26T12:55:57;2.97;;;0.68;;
71164;SDS011;58859;55.132;-1.586;2024-02-26T12:58:23;1.52;;;0.70;;
71164;SDS011;58859;55.132;-1.586;2024-02-26T13:00:53;5.43;;;1.35;;
71164;SDS011;58859;55.132;-1.586;2024-02-26T13:03:20;2.28;;;0.75;;
71164;SDS011;58859;55.132;-1.586;2024-02-26T13:05:47;5.93;;;1.02;;
71164;SDS011;58859;55.132;-1.586;2024-02-26T13:08:20;4.72;;;0.98;;
71164;SDS011;58859;55.132;-1.586;2024-02-26T13:10:46;3.37;;;1.20;;
71164;SDS011;58859;55.132;-1.586;2024-02-26T13:13:14;5.35;;;0.88;;
71164;SDS011;58859;55.132;-1.586;2024-02-26T13:15:41;9.90;;;1.30;;
71164;SDS011;58859;55.132;-1.586;2024-02-26T13:18:13;1.53;;;0.77;;
71164;SDS011;58859;55.132;-1.586;2024-02-26T13:20:39;6.35;;;1.42;;
71164;SDS011;58859;55.132;-1.586;2024-02-26T13:23:08;1.50;;;0.70;;
71164;SDS011;58859;55.132;-1.586;2024-02-26T13:25:36;5.75;;;1.05;;
71164;SDS011;58859;55.132;-1.586;2024-02-26T13:28:24;2.58;;;0.80;;
71164;SDS011;58859;55.132;-1.586;2024-02-26T13:33:26;3.58;;;0.80;;
71164;SDS011;58859;55.132;-1.586;2024-02-26T13:35:53;5.87;;;1.00;;
71164;SDS011;58859;55.132;-1.586;2024-02-26T13:38:20;5.25;;;1.00;;
71164;SDS011;58859;55.132;-1.586;2024-02-26T13:40:45;3.88;;;1.02;;
71164;SDS011;58859;55.132;-1.586;2024-02-26T13:43:11;1.57;;;0.40;;
71164;SDS011;58859;55.132;-1.586;2024-02-26T13:45:37;4.70;;;1.37;;
71164;SDS011;58859;55.132;-1.586;2024-02-26T13:48:03;8.07;;;1.10;;
71164;SDS011;58859;55.132;-1.586;2024-02-26T13:50:30;5.38;;;0.60;;
71164;SDS011;58859;55.132;-1.586;2024-02-26T13:52:56;5.30;;;1.00;;
71164;SDS011;58859;55.132;-1.586;2024-02-26T13:55:23;5.45;;;0.98;;
71164;SDS011;58859;55.132;-1.586;2024-02-26T13:57:51;3.97;;;0.85;;
71164;SDS011;58859;55.132;-1.586;2024-02-26T14:00:18;3.05;;;0.50;;
71164;SDS011;58859;55.132;-1.586;2024-02-26T14:02:45;2.30;;;1.03;;
71164;SDS011;58859;55.132;-1.586;2024-02-26T14:05:10;4.07;;;0.90;;
71164;SDS011;58859;55.132;-1.586;2024-02-26T14:07:36;5.83;;;0.90;;
71164;SDS011;58859;55.132;-1.586;2024-02-26T14:10:02;2.28;;;0.82;;
71164;SDS011;58859;55.132;-1.586;2024-02-26T14:12:27;3.58;;;0.80;;
71164;SDS011;58859;55.132;-1.586;2024-02-26T14:14:53;3.13;;;0.70;;
71164;SDS011;58859;55.132;-1.586;2024-02-26T14:17:20;2.10;;;0.75;;
71164;SDS011;58859;55.132;-1.586;2024-02-26T14:19:46;3.60;;;0.85;;
71164;SDS011;58859;55.132;-1.586;2024-02-26T14:22:13;4.15;;;0.60;;
71164;SDS011;58859;55.132;-1.586;2024-02-26T14:24:40;3.70;;;1.05;;
71164;SDS011;58859;55.132;-1.586;2024-02-26T14:27:07;3.37;;;0.90;;
71164;SDS011;58859;55.132;-1.586;2024-02-26T14:29:34;7.07;;;0.82;;
71164;SDS011;58859;55.132;-1.586;2024-02-26T14:31:59;5.87;;;1.70;;
71164;SDS011;58859;55.132;-1.586;2024-02-26T14:34:26;2.65;;;0.40;;
71164;SDS011;58859;55.132;-1.586;2024-02-26T14:36:52;3.30;;;0.80;;
71164;SDS011;58859;55.132;-1.586;2024-02-26T14:39:17;6.03;;;0.90;;
71164;SDS011;58859;55.132;-1.586;2024-02-26T14:41:43;8.77;;;1.50;;